Ana Sayfa
METAR-TAF:

METAR-TAF

Havaalanları :

Perth, Avustralya

Enlem: 31-56S, Boylam: 115-57E, yükseklik: 20 m

Güncel hava durumu gözlemi

Rapor saat 04:30 UTC de 31 dakika önce yapıldı.
Rüzgar kuzey/kuzeydoğudan 13 kt
Sıcaklık 32°C
Nem 21%
Basınç 1023 hPa
Görüş mesafesi 10 km veya daha fazla
1500 m altında bulut yok ve kümülonimbus yok

METAR: YPPH 180430Z 03013KT CAVOK 32/07 Q1023

Saat: 13:01 (05:01 UTC)

Tahmin

Rapor saat 02:03 UTC de 2 saat ve 58 dakika önce yapıldı.
Ayın 18'si saat 03 UTC'den ayın 19'si saat 06 UTC'ye kadar geçerli Tahmin
Rüzgar doğu/kuzeydoğudan 12 kt
Görüş mesafesi 10 km veya daha fazla
1500 m altında bulut yok ve kümülonimbus yok

TAF: YPPH 180203Z 1803/1906 06012KT CAVOK

4.000'den fazla havaalanı için hava durumu gözlemleri ve tahminleri (METAR ve TAF raporları).

Kullanılabilir istasyonlar harita üzerinde sarı ve kırmızı noktalarla gösterilir.

İstasyonun adını görmek için fareyi noktanın üzerinde gezdirin.

Sonrasında hava gözlem ve tahminlerini görmek için tıklayın.

Haritayı değiştirmek için: yaklaştırmak için siyah artı işaretli yeşil düğmeye ve uzaklaştırmak için de eksi işaretli düğmeye hızla tıklayın; bitişik haritalar için yeşil okları kullanın.


METAR-TAF: